Time;durP1;ratioP1;P1;durP2;ratioP2;P2;SDS_P1;SDS_P2;PMS_P1;PMS_P2;Temp;Humidity;BMP_temperature;BMP_pressure;BME280_temperature;BME280_humidity;BME280_pressure;Samples;Min_cycle;Max_cycle;Signal;HPM_P1;HPM_P2
2023/10/05 00:01:12;;;;;;;7.82;2.42;;;;;;;;;;4994520;28;20027;-68
2023/10/05 00:03:44;;;;;;;7.53;2.13;;;;;;;;;;4994568;28;20427;-68
2023/10/05 00:06:16;;;;;;;4.35;2.05;;;;;;;;;;4994477;28;20382;-67
2023/10/05 00:08:47;;;;;;;5.47;2.05;;;;;;;;;;4994277;28;20021;-67
2023/10/05 00:11:22;;;;;;;7.00;2.22;;;;;;;;;;4994407;28;20018;-67
2023/10/05 00:13:48;;;;;;;4.20;1.95;;;;;;;;;;4994116;28;20014;-67
2023/10/05 00:16:20;;;;;;;5.32;2.10;;;;;;;;;;4994335;28;20489;-67
2023/10/05 00:18:45;;;;;;;7.57;2.42;;;;;;;;;;4994222;28;20387;-67
2023/10/05 00:21:11;;;;;;;5.83;2.30;;;;;;;;;;4994011;28;20022;-67
2023/10/05 00:23:36;;;;;;;5.20;1.85;;;;;;;;;;4994286;28;20775;-67
2023/10/05 00:26:02;;;;;;;4.40;1.85;;;;;;;;;;4994055;28;20053;-67
2023/10/05 00:28:27;;;;;;;4.55;1.95;;;;;;;;;;4993920;28;20102;-67
2023/10/05 00:30:54;;;;;;;4.27;1.67;;;;;;;;;;4993940;28;20389;-67
2023/10/05 00:33:20;;;;;;;4.15;1.92;;;;;;;;;;4993883;28;20049;-67
2023/10/05 00:35:46;;;;;;;4.45;2.08;;;;;;;;;;4993845;28;20026;-67
2023/10/05 00:38:16;;;;;;;4.80;2.08;;;;;;;;;;4994105;28;20026;-67
2023/10/05 00:40:56;;;;;;;5.43;2.22;;;;;;;;;;4994007;28;20467;-67
2023/10/05 00:43:24;;;;;;;7.78;2.20;;;;;;;;;;4994053;28;20367;-67
2023/10/05 00:45:50;;;;;;;7.47;2.72;;;;;;;;;;4993704;28;20077;-67
2023/10/05 00:48:30;;;;;;;5.05;2.20;;;;;;;;;;4993736;28;20093;-68
2023/10/05 00:51:38;;;;;;;4.85;2.15;;;;;;;;;;4993695;28;20026;-67
2023/10/05 00:53:46;;;;;;;4.47;1.70;;;;;;;;;;4988070;28;20042;-67
2023/10/05 00:56:12;;;;;;;7.13;2.17;;;;;;;;;;4993926;28;20497;-67
2023/10/05 00:58:42;;;;;;;6.55;2.97;;;;;;;;;;4993584;28;20022;-67
2023/10/05 01:01:14;;;;;;;7.65;2.67;;;;;;;;;;4993870;28;20025;-67
2023/10/05 01:04:12;;;;;;;9.02;2.42;;;;;;;;;;4993873;28;20428;-67
2023/10/05 01:06:48;;;;;;;5.15;2.55;;;;;;;;;;4995387;28;20024;-67
2023/10/05 01:12:02;;;;;;;5.10;2.65;;;;;;;;;;4997472;28;20026;-68
2023/10/05 01:14:36;;;;;;;6.03;2.53;;;;;;;;;;4997569;28;20478;-67
2023/10/05 01:17:02;;;;;;;4.47;2.05;;;;;;;;;;4997572;28;20042;-67
2023/10/05 01:19:27;;;;;;;4.00;2.27;;;;;;;;;;4997155;28;20565;-67
2023/10/05 01:21:52;;;;;;;6.70;2.13;;;;;;;;;;4997158;28;20026;-67
2023/10/05 01:24:18;;;;;;;5.63;2.07;;;;;;;;;;4997160;28;20033;-67
2023/10/05 01:26:44;;;;;;;3.72;1.58;;;;;;;;;;4997384;28;20426;-68
2023/10/05 01:29:09;;;;;;;5.82;1.70;;;;;;;;;;4997303;28;20026;-67
2023/10/05 01:31:34;;;;;;;3.92;1.67;;;;;;;;;;4997034;28;20148;-68
2023/10/05 01:34:01;;;;;;;3.67;1.77;;;;;;;;;;4997246;28;20076;-68
2023/10/05 01:36:27;;;;;;;4.45;1.70;;;;;;;;;;4996940;28;20356;-68
2023/10/05 01:39:07;;;;;;;6.57;2.13;;;;;;;;;;4996820;28;20034;-67
2023/10/05 01:41:33;;;;;;;6.10;2.05;;;;;;;;;;4996896;28;20027;-67
2023/10/05 01:44:00;;;;;;;6.37;1.63;;;;;;;;;;4997111;28;20125;-68
2023/10/05 01:46:25;;;;;;;3.97;1.55;;;;;;;;;;4997023;28;20362;-67
2023/10/05 01:48:51;;;;;;;3.60;1.67;;;;;;;;;;4996707;28;20076;-68
2023/10/05 01:51:23;;;;;;;2.85;1.50;;;;;;;;;;4996654;28;20279;-68
2023/10/05 01:53:51;;;;;;;5.77;1.63;;;;;;;;;;4996572;28;20029;-67
2023/10/05 01:56:20;;;;;;;2.85;1.40;;;;;;;;;;4996544;28;20026;-67
2023/10/05 01:58:50;;;;;;;2.67;1.30;;;;;;;;;;4996382;28;20018;-67
2023/10/05 02:01:15;;;;;;;7.10;1.83;;;;;;;;;;4996724;28;20462;-67
2023/10/05 02:03:41;;;;;;;3.17;1.90;;;;;;;;;;4996420;28;20036;-67
2023/10/05 02:06:11;;;;;;;2.42;1.48;;;;;;;;;;4996345;28;20054;-67
2023/10/05 02:08:37;;;;;;;5.38;1.80;;;;;;;;;;4996436;28;20466;-67
2023/10/05 02:11:04;;;;;;;5.38;1.98;;;;;;;;;;4995085;28;20073;-67
2023/10/05 02:13:29;;;;;;;5.78;2.13;;;;;;;;;;4996525;28;20529;-67
2023/10/05 02:15:58;;;;;;;6.17;2.00;;;;;;;;;;4996258;28;20057;-67
2023/10/05 02:18:24;;;;;;;4.82;2.10;;;;;;;;;;4994889;28;20593;-67
2023/10/05 02:20:51;;;;;;;5.40;2.55;;;;;;;;;;4996044;28;20026;-67
2023/10/05 02:25:54;;;;;;;6.43;2.05;;;;;;;;;;4996018;28;20415;-67
2023/10/05 02:28:23;;;;;;;5.65;2.15;;;;;;;;;;4996247;28;20543;-67
2023/10/05 02:30:48;;;;;;;9.57;2.30;;;;;;;;;;4996023;28;20022;-66
2023/10/05 02:33:15;;;;;;;6.65;1.95;;;;;;;;;;4996111;28;20026;-67
2023/10/05 02:35:40;;;;;;;3.92;1.95;;;;;;;;;;4995935;28;20164;-66
2023/10/05 02:38:06;;;;;;;7.32;2.47;;;;;;;;;;4996070;28;20560;-67
2023/10/05 02:40:36;;;;;;;5.28;1.85;;;;;;;;;;4995685;28;20037;-66
2023/10/05 02:43:07;;;;;;;3.55;1.92;;;;;;;;;;4995724;28;20471;-66
2023/10/05 02:45:32;;;;;;;3.47;1.90;;;;;;;;;;4995682;28;20466;-66
2023/10/05 02:47:58;;;;;;;6.72;2.20;;;;;;;;;;4995589;28;20032;-66
2023/10/05 02:50:23;;;;;;;6.45;2.05;;;;;;;;;;4995591;28;20127;-66
2023/10/05 02:52:49;;;;;;;4.70;1.92;;;;;;;;;;4995462;28;20069;-66
2023/10/05 02:55:14;;;;;;;3.10;1.73;;;;;;;;;;4995496;28;20026;-66
2023/10/05 02:57:40;;;;;;;4.30;1.77;;;;;;;;;;4995687;28;20058;-66
2023/10/05 03:00:08;;;;;;;6.78;1.77;;;;;;;;;;4995285;28;20113;-66
2023/10/05 03:02:37;;;;;;;5.43;2.13;;;;;;;;;;4995629;28;20054;-66
2023/10/05 03:05:06;;;;;;;8.65;1.88;;;;;;;;;;4995574;28;20019;-66
2023/10/05 03:07:31;;;;;;;8.20;1.90;;;;;;;;;;4995336;28;20512;-66
2023/10/05 03:09:59;;;;;;;8.70;2.63;;;;;;;;;;4995070;28;20054;-66
2023/10/05 03:12:24;;;;;;;4.07;1.73;;;;;;;;;;4995110;28;20030;-66
2023/10/05 03:14:50;;;;;;;3.42;1.73;;;;;;;;;;4995099;28;20018;-66
2023/10/05 03:17:20;;;;;;;3.80;1.90;;;;;;;;;;4995071;28;20474;-66
2023/10/05 03:19:45;;;;;;;4.80;2.10;;;;;;;;;;4995182;28;20038;-66
2023/10/05 03:22:14;;;;;;;5.15;1.88;;;;;;;;;;4995022;28;20022;-66
2023/10/05 03:24:45;;;;;;;4.32;2.17;;;;;;;;;;4994929;28;20023;-66
2023/10/05 03:27:10;;;;;;;4.47;1.73;;;;;;;;;;4994916;28;20030;-66
2023/10/05 03:29:38;;;;;;;3.47;1.85;;;;;;;;;;4994478;28;20105;-66
2023/10/05 03:34:35;;;;;;;5.03;2.17;;;;;;;;;;4994739;28;20018;-66
2023/10/05 03:37:08;;;;;;;4.55;2.20;;;;;;;;;;4994664;28;20080;-66
2023/10/05 03:39:38;;;;;;;5.40;2.42;;;;;;;;;;4994856;28;20436;-66
2023/10/05 03:42:05;;;;;;;5.90;2.05;;;;;;;;;;4994619;28;20026;-66
2023/10/05 03:44:31;;;;;;;5.55;1.88;;;;;;;;;;4994849;28;20106;-66
2023/10/05 03:46:56;;;;;;;5.50;2.05;;;;;;;;;;4994535;28;20021;-66
2023/10/05 03:49:22;;;;;;;4.03;2.15;;;;;;;;;;4994475;28;20029;-66
2023/10/05 03:51:51;;;;;;;5.17;1.73;;;;;;;;;;4994609;28;20081;-67
2023/10/05 03:54:25;;;;;;;9.85;1.88;;;;;;;;;;4994366;28;20477;-67
2023/10/05 03:57:04;;;;;;;6.80;1.77;;;;;;;;;;4994635;28;20022;-67
2023/10/05 03:59:29;;;;;;;5.78;2.58;;;;;;;;;;4994545;28;20489;-67
2023/10/05 04:01:55;;;;;;;4.78;2.03;;;;;;;;;;4994300;28;20094;-67
2023/10/05 04:04:22;;;;;;;4.72;2.03;;;;;;;;;;4994232;28;20077;-67
2023/10/05 04:06:50;;;;;;;4.22;2.17;;;;;;;;;;4994464;28;20394;-67
2023/10/05 04:09:16;;;;;;;8.77;2.05;;;;;;;;;;4994058;28;20058;-67
2023/10/05 04:11:42;;;;;;;11.18;2.90;;;;;;;;;;4994212;28;20382;-67
2023/10/05 04:14:08;;;;;;;5.20;2.28;;;;;;;;;;4994374;28;20026;-67
2023/10/05 04:16:33;;;;;;;6.03;2.17;;;;;;;;;;4994308;28;20033;-67
2023/10/05 04:18:59;;;;;;;6.40;2.60;;;;;;;;;;4993962;28;20093;-67
2023/10/05 04:21:25;;;;;;;8.50;2.15;;;;;;;;;;4993998;28;20018;-67
2023/10/05 04:23:50;;;;;;;9.45;2.88;;;;;;;;;;4993994;28;20022;-67
2023/10/05 04:26:19;;;;;;;7.90;2.70;;;;;;;;;;4993914;28;20018;-67
2023/10/05 04:28:52;;;;;;;5.85;2.25;;;;;;;;;;4993976;28;20015;-67
2023/10/05 04:31:26;;;;;;;5.05;2.20;;;;;;;;;;4993859;28;20022;-67
2023/10/05 04:33:52;;;;;;;8.35;2.38;;;;;;;;;;4993880;28;20050;-67
2023/10/05 04:36:19;;;;;;;7.30;2.50;;;;;;;;;;4993873;28;20018;-67
2023/10/05 04:38:45;;;;;;;5.93;2.28;;;;;;;;;;4993694;28;20018;-67
2023/10/05 04:41:14;;;;;;;9.35;2.70;;;;;;;;;;4995198;28;20029;-67
2023/10/05 04:43:39;;;;;;;5.60;2.33;;;;;;;;;;4998167;28;20054;-67
2023/10/05 04:46:05;;;;;;;5.50;2.15;;;;;;;;;;4998095;28;20056;-67
2023/10/05 04:48:31;;;;;;;7.80;2.65;;;;;;;;;;4997841;28;20042;-67
2023/10/05 04:50:59;;;;;;;9.88;2.53;;;;;;;;;;4997791;28;20382;-67
2023/10/05 04:53:26;;;;;;;11.52;2.65;;;;;;;;;;4997751;28;20381;-67
2023/10/05 04:56:00;;;;;;;8.90;2.20;;;;;;;;;;4997623;28;20022;-67
2023/10/05 04:58:31;;;;;;;8.13;2.47;;;;;;;;;;4997645;28;20018;-67
2023/10/05 05:06:11;;;;;;;6.82;2.72;;;;;;;;;;4997533;28;20026;-66
2023/10/05 05:08:38;;;;;;;7.80;2.60;;;;;;;;;;4997319;28;20422;-66
2023/10/05 05:11:08;;;;;;;5.43;2.08;;;;;;;;;;4997455;28;20030;-66
2023/10/05 05:13:33;;;;;;;12.07;2.63;;;;;;;;;;4997538;28;20054;-66
2023/10/05 05:15:59;;;;;;;10.63;2.53;;;;;;;;;;4997346;28;20065;-66
2023/10/05 05:18:24;;;;;;;7.00;2.47;;;;;;;;;;4997292;28;20256;-66
2023/10/05 05:20:49;;;;;;;7.93;1.95;;;;;;;;;;4997441;28;20076;-66
2023/10/05 05:23:16;;;;;;;5.87;2.37;;;;;;;;;;4997203;28;20041;-66
2023/10/05 05:25:42;;;;;;;6.22;2.35;;;;;;;;;;4997180;28;20640;-66
2023/10/05 05:28:08;;;;;;;8.57;2.90;;;;;;;;;;4997198;28;20010;-67
2023/10/05 05:30:33;;;;;;;9.18;2.58;;;;;;;;;;4997359;28;20100;-67
2023/10/05 05:32:58;;;;;;;7.78;2.28;;;;;;;;;;4997066;28;20022;-66
2023/10/05 05:35:24;;;;;;;4.83;1.67;;;;;;;;;;4996993;28;20033;-66
2023/10/05 05:37:49;;;;;;;5.43;2.38;;;;;;;;;;4996951;28;20251;-66
2023/10/05 05:40:15;;;;;;;7.03;2.67;;;;;;;;;;4996862;28;20073;-67
2023/10/05 05:42:40;;;;;;;6.88;2.42;;;;;;;;;;4997129;28;20015;-66
2023/10/05 05:45:15;;;;;;;6.90;2.88;;;;;;;;;;4996863;28;20015;-66
2023/10/05 05:47:47;;;;;;;6.18;2.25;;;;;;;;;;4996832;28;20470;-66
2023/10/05 05:50:17;;;;;;;6.60;2.45;;;;;;;;;;4997014;28;20093;-66
2023/10/05 05:52:45;;;;;;;8.18;2.58;;;;;;;;;;4996332;28;20035;-66
2023/10/05 05:55:10;;;;;;;8.25;2.55;;;;;;;;;;4996618;28;20026;-66
2023/10/05 05:57:36;;;;;;;5.03;2.10;;;;;;;;;;4996841;28;20030;-66
2023/10/05 06:00:10;;;;;;;7.13;2.22;;;;;;;;;;4996550;28;20482;-66
2023/10/05 06:02:39;;;;;;;6.90;2.55;;;;;;;;;;4996772;28;20479;-66
2023/10/05 06:05:08;;;;;;;6.45;2.63;;;;;;;;;;4996664;28;20033;-66
2023/10/05 06:07:33;;;;;;;7.70;2.25;;;;;;;;;;4996698;28;20548;-66
2023/10/05 06:09:58;;;;;;;7.53;2.22;;;;;;;;;;4996221;28;20089;-66
2023/10/05 06:12:23;;;;;;;6.30;2.38;;;;;;;;;;4996381;28;20076;-67
2023/10/05 06:14:49;;;;;;;6.47;1.93;;;;;;;;;;4996275;28;20053;-67
2023/10/05 06:17:14;;;;;;;6.40;2.05;;;;;;;;;;4996486;28;20260;-67
2023/10/05 06:19:39;;;;;;;7.83;2.53;;;;;;;;;;4996186;28;20023;-67
2023/10/05 06:22:06;;;;;;;9.23;2.73;;;;;;;;;;4996389;28;20790;-67
2023/10/05 06:24:31;;;;;;;7.72;2.60;;;;;;;;;;4996101;28;20248;-67
2023/10/05 06:26:58;;;;;;;7.72;2.53;;;;;;;;;;4996033;28;20110;-67
2023/10/05 06:29:24;;;;;;;13.48;3.10;;;;;;;;;;4996057;28;20065;-67
2023/10/05 06:31:50;;;;;;;11.18;3.35;;;;;;;;;;4996228;28;20060;-67
2023/10/05 06:34:16;;;;;;;10.27;3.13;;;;;;;;;;4995850;28;20060;-67
2023/10/05 06:36:42;;;;;;;8.70;3.00;;;;;;;;;;4995803;28;20252;-67
2023/10/05 06:39:14;;;;;;;9.60;3.35;;;;;;;;;;4995769;28;20018;-67
2023/10/05 06:41:39;;;;;;;10.27;3.22;;;;;;;;;;4995747;28;20022;-67
2023/10/05 06:44:07;;;;;;;7.18;3.00;;;;;;;;;;4995967;28;20025;-67
2023/10/05 06:46:32;;;;;;;9.82;3.15;;;;;;;;;;4995775;28;20030;-67
2023/10/05 06:48:57;;;;;;;7.55;2.42;;;;;;;;;;4995580;28;20044;-67
2023/10/05 06:51:26;;;;;;;8.93;2.97;;;;;;;;;;4995593;28;20436;-67
2023/10/05 06:53:52;;;;;;;8.27;3.70;;;;;;;;;;4995441;28;20467;-67
2023/10/05 06:56:18;;;;;;;12.95;5.15;;;;;;;;;;4995778;28;20518;-67
2023/10/05 06:58:44;;;;;;;9.50;4.35;;;;;;;;;;4995708;28;20093;-67
2023/10/05 07:01:09;;;;;;;14.05;5.30;;;;;;;;;;4995246;28;20414;-67
2023/10/05 07:03:34;;;;;;;17.70;5.50;;;;;;;;;;4994628;28;20057;-67
2023/10/05 07:05:59;;;;;;;16.37;4.97;;;;;;;;;;4995318;28;20069;-67
2023/10/05 07:08:25;;;;;;;16.57;6.13;;;;;;;;;;4995273;28;20529;-67
2023/10/05 07:10:50;;;;;;;16.23;6.55;;;;;;;;;;4994991;28;20054;-67
2023/10/05 07:13:19;;;;;;;15.13;6.03;;;;;;;;;;4995185;28;20022;-67
2023/10/05 07:15:44;;;;;;;14.82;5.28;;;;;;;;;;4995368;28;20034;-67
2023/10/05 07:18:09;;;;;;;17.80;5.80;;;;;;;;;;4995082;28;20529;-67
2023/10/05 07:20:36;;;;;;;19.33;5.47;;;;;;;;;;4995153;28;20018;-67
2023/10/05 07:23:03;;;;;;;20.67;6.28;;;;;;;;;;4995098;28;20014;-67
2023/10/05 07:25:28;;;;;;;19.20;6.00;;;;;;;;;;4994891;28;20025;-67
2023/10/05 07:27:54;;;;;;;17.25;5.72;;;;;;;;;;4995167;28;20093;-67
2023/10/05 07:30:19;;;;;;;21.02;5.45;;;;;;;;;;4994921;28;20389;-67
2023/10/05 07:32:44;;;;;;;17.48;6.00;;;;;;;;;;4994802;28;20065;-67
2023/10/05 07:35:12;;;;;;;15.55;4.85;;;;;;;;;;4994831;28;20449;-67
2023/10/05 07:37:37;;;;;;;13.60;4.93;;;;;;;;;;4994990;28;20110;-67
2023/10/05 07:40:08;;;;;;;14.53;5.23;;;;;;;;;;4994666;28;20109;-67
2023/10/05 07:42:34;;;;;;;15.23;5.57;;;;;;;;;;4994684;28;20715;-67
2023/10/05 07:44:59;;;;;;;16.80;5.15;;;;;;;;;;4994586;28;20161;-67
2023/10/05 07:47:25;;;;;;;15.18;4.60;;;;;;;;;;4994773;28;20374;-67
2023/10/05 07:49:53;;;;;;;17.25;5.55;;;;;;;;;;4994776;28;20076;-67
2023/10/05 07:52:19;;;;;;;17.58;5.50;;;;;;;;;;4994466;28;20029;-67
2023/10/05 07:54:44;;;;;;;14.45;5.20;;;;;;;;;;4994326;28;20414;-67
2023/10/05 07:57:10;;;;;;;17.98;4.95;;;;;;;;;;4994626;28;20037;-67
2023/10/05 07:59:40;;;;;;;15.60;5.55;;;;;;;;;;4994546;28;20497;-67
2023/10/05 08:02:06;;;;;;;13.77;4.80;;;;;;;;;;4994491;28;20027;-67
2023/10/05 08:04:32;;;;;;;22.83;6.32;;;;;;;;;;4994279;28;20045;-67
2023/10/05 08:06:57;;;;;;;18.83;5.90;;;;;;;;;;4994498;28;20048;-67
2023/10/05 08:09:23;;;;;;;14.05;5.00;;;;;;;;;;4994021;28;20510;-67
2023/10/05 08:11:50;;;;;;;11.88;5.07;;;;;;;;;;4994182;28;20429;-67
2023/10/05 08:14:17;;;;;;;19.73;6.07;;;;;;;;;;4994361;28;20106;-67
2023/10/05 08:16:42;;;;;;;20.65;7.43;;;;;;;;;;4994301;28;20053;-67
2023/10/05 08:19:08;;;;;;;23.63;7.97;;;;;;;;;;4994186;28;20467;-67
2023/10/05 08:21:34;;;;;;;20.17;7.10;;;;;;;;;;4994311;28;20026;-67
2023/10/05 08:23:59;;;;;;;22.75;6.50;;;;;;;;;;4994294;28;20050;-67
2023/10/05 08:26:28;;;;;;;26.88;7.00;;;;;;;;;;4993992;28;20105;-66
2023/10/05 08:28:53;;;;;;;23.80;7.22;;;;;;;;;;4994232;28;20065;-67
2023/10/05 08:31:23;;;;;;;20.57;7.20;;;;;;;;;;4994117;28;20491;-66
2023/10/05 08:33:50;;;;;;;28.05;6.60;;;;;;;;;;4993843;28;20241;-67
2023/10/05 08:36:17;;;;;;;24.08;6.15;;;;;;;;;;4994125;28;20470;-67
2023/10/05 08:38:44;;;;;;;23.55;7.07;;;;;;;;;;4994129;28;20146;-67
2023/10/05 08:41:14;;;;;;;30.10;6.55;;;;;;;;;;4993705;28;20026;-67
2023/10/05 08:43:46;;;;;;;28.17;6.75;;;;;;;;;;4994027;28;20018;-67
2023/10/05 08:46:12;;;;;;;35.08;6.53;;;;;;;;;;4994077;28;20374;-67
2023/10/05 08:48:37;;;;;;;21.52;5.72;;;;;;;;;;4993763;28;20025;-67
2023/10/05 08:51:10;;;;;;;23.45;6.40;;;;;;;;;;4993811;28;20044;-67
2023/10/05 08:53:41;;;;;;;21.95;6.45;;;;;;;;;;4993706;28;20022;-67
2023/10/05 08:56:08;;;;;;;26.38;6.65;;;;;;;;;;4993642;28;20026;-67
2023/10/05 08:58:34;;;;;;;24.33;6.55;;;;;;;;;;4993961;28;20025;-67
2023/10/05 09:01:03;;;;;;;26.70;7.35;;;;;;;;;;4993844;28;20026;-67
2023/10/05 09:03:29;;;;;;;28.08;6.75;;;;;;;;;;4993658;28;20356;-67
2023/10/05 09:06:13;;;;;;;30.35;6.25;;;;;;;;;;4993897;28;20033;-67
2023/10/05 09:08:43;;;;;;;24.48;6.57;;;;;;;;;;4993430;28;20040;-67
2023/10/05 09:11:09;;;;;;;26.67;7.72;;;;;;;;;;4993830;28;20030;-67
2023/10/05 09:13:44;;;;;;;21.95;6.43;;;;;;;;;;4993537;28;20082;-67
2023/10/05 09:16:15;;;;;;;26.92;7.68;;;;;;;;;;4993648;28;20410;-67
2023/10/05 09:18:49;;;;;;;23.50;7.72;;;;;;;;;;4993838;28;20026;-67
2023/10/05 09:21:19;;;;;;;28.75;7.07;;;;;;;;;;4993406;28;20029;-67
2023/10/05 09:23:44;;;;;;;25.70;7.50;;;;;;;;;;4993546;28;20022;-67
2023/10/05 09:26:33;;;;;;;23.33;6.70;;;;;;;;;;4993601;28;20077;-67
2023/10/05 09:29:20;;;;;;;26.08;6.50;;;;;;;;;;4997361;28;20466;-67
2023/10/05 09:31:45;;;;;;;25.20;6.32;;;;;;;;;;4997361;28;20475;-67
2023/10/05 09:34:14;;;;;;;25.40;6.63;;;;;;;;;;4997011;28;20081;-67
2023/10/05 09:36:39;;;;;;;19.40;6.47;;;;;;;;;;4997242;28;20244;-67
2023/10/05 09:39:07;;;;;;;28.98;6.50;;;;;;;;;;4996996;28;20442;-67
2023/10/05 09:41:35;;;;;;;22.58;5.55;;;;;;;;;;4997297;28;20478;-67
2023/10/05 09:44:01;;;;;;;26.50;6.50;;;;;;;;;;4997082;28;20386;-67
2023/10/05 09:46:29;;;;;;;23.13;6.10;;;;;;;;;;4996855;28;20447;-67
2023/10/05 09:49:01;;;;;;;19.40;5.70;;;;;;;;;;4996809;28;20105;-67
2023/10/05 09:51:26;;;;;;;22.48;5.80;;;;;;;;;;4997043;28;20470;-67
2023/10/05 09:53:52;;;;;;;20.60;5.22;;;;;;;;;;4996621;28;20165;-67
2023/10/05 09:56:20;;;;;;;20.30;4.90;;;;;;;;;;4996602;28;20027;-67
2023/10/05 09:58:45;;;;;;;25.63;4.35;;;;;;;;;;4996844;28;20617;-67
2023/10/05 10:01:10;;;;;;;23.70;5.35;;;;;;;;;;4996485;28;20109;-67
2023/10/05 10:03:36;;;;;;;28.92;5.40;;;;;;;;;;4996782;28;20041;-67
2023/10/05 10:06:09;;;;;;;24.13;5.22;;;;;;;;;;4996408;28;20026;-67
2023/10/05 10:08:50;;;;;;;26.15;5.78;;;;;;;;;;4996522;28;20416;-67
2023/10/05 10:11:19;;;;;;;24.55;4.60;;;;;;;;;;4996636;28;20093;-67
2023/10/05 10:14:00;;;;;;;21.42;4.22;;;;;;;;;;4996525;28;20027;-67
2023/10/05 10:16:27;;;;;;;18.23;4.47;;;;;;;;;;4996276;28;20026;-67
2023/10/05 10:18:53;;;;;;;15.75;4.00;;;;;;;;;;4996490;28;20442;-67
2023/10/05 10:21:32;;;;;;;20.08;3.30;;;;;;;;;;4996370;28;20050;-67
2023/10/05 10:24:06;;;;;;;14.57;4.13;;;;;;;;;;4996377;28;20026;-67
2023/10/05 10:26:35;;;;;;;19.05;3.70;;;;;;;;;;4996340;28;20463;-67
2023/10/05 10:29:05;;;;;;;14.68;3.13;;;;;;;;;;4996043;28;20497;-67
2023/10/05 10:31:30;;;;;;;14.65;2.97;;;;;;;;;;4995993;28;20039;-67
2023/10/05 10:34:30;;;;;;;14.27;2.92;;;;;;;;;;4996008;28;20146;-67
2023/10/05 10:36:56;;;;;;;11.73;2.83;;;;;;;;;;4995718;28;20390;-67
2023/10/05 10:39:23;;;;;;;9.75;2.95;;;;;;;;;;4994907;28;20030;-67
2023/10/05 10:42:04;;;;;;;19.55;4.05;;;;;;;;;;4995764;28;20105;-67
2023/10/05 10:44:29;;;;;;;13.95;2.90;;;;;;;;;;4995725;28;20033;-67
2023/10/05 10:47:11;;;;;;;13.77;3.30;;;;;;;;;;4995750;28;20026;-67
2023/10/05 10:49:39;;;;;;;;;;;;;;;;;;4996343;28;20062;-67
2023/10/05 10:52:09;;;;;;;16.25;3.15;;;;;;;;;;4995981;28;19909;-67
2023/10/05 10:54:37;;;;;;;17.85;3.08;;;;;;;;;;4995743;28;20395;-67
2023/10/05 10:57:06;;;;;;;13.98;2.83;;;;;;;;;;4995835;28;20022;-67
2023/10/05 10:59:41;;;;;;;9.32;2.45;;;;;;;;;;4995399;28;20466;-67
2023/10/05 11:02:11;;;;;;;18.60;3.58;;;;;;;;;;4995499;28;20049;-67
2023/10/05 11:04:39;;;;;;;10.25;2.88;;;;;;;;;;4995678;28;20023;-67
2023/10/05 11:07:07;;;;;;;16.30;4.05;;;;;;;;;;4995637;28;20046;-67
2023/10/05 11:09:36;;;;;;;15.80;3.20;;;;;;;;;;4995281;28;20553;-67
2023/10/05 11:12:09;;;;;;;13.02;2.90;;;;;;;;;;4995448;28;20489;-67
2023/10/05 11:14:35;;;;;;;8.40;2.67;;;;;;;;;;4995247;28;20022;-67
2023/10/05 11:17:01;;;;;;;17.35;3.30;;;;;;;;;;4995152;28;20105;-67
2023/10/05 11:19:46;;;;;;;20.02;3.70;;;;;;;;;;4995294;28;20026;-67
2023/10/05 11:22:12;;;;;;;14.25;2.70;;;;;;;;;;4995329;28;20470;-67
2023/10/05 11:24:59;;;;;;;21.40;4.15;;;;;;;;;;4995246;28;20052;-67
2023/10/05 11:27:25;;;;;;;12.82;3.08;;;;;;;;;;4995223;28;20044;-67
2023/10/05 11:29:55;;;;;;;11.37;3.10;;;;;;;;;;4995184;28;20482;-67
2023/10/05 11:32:23;;;;;;;14.00;3.47;;;;;;;;;;4995078;28;20263;-67
2023/10/05 11:34:54;;;;;;;12.80;3.03;;;;;;;;;;4995065;28;20497;-67
2023/10/05 11:37:20;;;;;;;16.35;3.83;;;;;;;;;;4995049;28;20492;-67
2023/10/05 11:39:49;;;;;;;14.77;3.27;;;;;;;;;;4994603;28;20018;-67
2023/10/05 11:42:16;;;;;;;14.77;3.05;;;;;;;;;;4994915;28;20742;-67
2023/10/05 11:44:44;;;;;;;11.88;3.13;;;;;;;;;;4994877;28;20015;-67
2023/10/05 11:47:19;;;;;;;15.65;2.83;;;;;;;;;;4994638;28;20077;-67
2023/10/05 11:49:45;;;;;;;10.55;2.80;;;;;;;;;;4994536;28;20513;-67
2023/10/05 11:52:12;;;;;;;9.82;3.10;;;;;;;;;;4994454;28;20072;-67
2023/10/05 11:54:42;;;;;;;14.48;3.20;;;;;;;;;;4994663;28;20049;-67
2023/10/05 11:57:07;;;;;;;13.10;3.20;;;;;;;;;;4994552;28;20028;-67
2023/10/05 11:59:35;;;;;;;18.23;3.40;;;;;;;;;;4994325;28;20100;-67
2023/10/05 12:02:01;;;;;;;10.00;2.90;;;;;;;;;;4994440;28;20244;-67
2023/10/05 12:04:26;;;;;;;9.90;2.83;;;;;;;;;;4994569;28;20088;-67
2023/10/05 12:07:01;;;;;;;16.80;2.83;;;;;;;;;;4994334;28;20478;-67
2023/10/05 12:09:27;;;;;;;9.65;2.42;;;;;;;;;;4994140;28;20506;-67
2023/10/05 12:11:54;;;;;;;20.48;3.17;;;;;;;;;;4994478;28;20022;-67
2023/10/05 12:14:19;;;;;;;13.07;2.78;;;;;;;;;;4994441;28;20035;-67
2023/10/05 12:16:44;;;;;;;9.52;2.58;;;;;;;;;;4994184;28;20026;-67
2023/10/05 12:19:21;;;;;;;6.27;2.50;;;;;;;;;;4994086;28;20033;-67
2023/10/05 12:21:46;;;;;;;10.43;2.70;;;;;;;;;;4994304;28;20093;-67
2023/10/05 12:24:12;;;;;;;20.45;3.47;;;;;;;;;;4994296;28;20436;-67
2023/10/05 12:26:39;;;;;;;13.00;3.25;;;;;;;;;;4994012;28;20026;-67
2023/10/05 12:29:04;;;;;;;14.63;2.95;;;;;;;;;;4993947;28;20089;-67
2023/10/05 12:31:29;;;;;;;17.38;3.10;;;;;;;;;;4994206;28;20101;-67
2023/10/05 12:33:55;;;;;;;12.83;2.97;;;;;;;;;;4993958;28;20018;-67
2023/10/05 12:36:22;;;;;;;9.40;2.60;;;;;;;;;;4993900;28;20256;-67
2023/10/05 12:38:48;;;;;;;7.88;2.88;;;;;;;;;;4993851;28;20050;-67
2023/10/05 12:41:13;;;;;;;12.82;2.60;;;;;;;;;;4994051;28;20057;-67
2023/10/05 12:43:42;;;;;;;16.40;3.15;;;;;;;;;;4993927;28;20022;-67
2023/10/05 12:46:11;;;;;;;14.40;3.60;;;;;;;;;;4993786;28;20081;-67
2023/10/05 12:48:37;;;;;;;9.60;2.95;;;;;;;;;;4993744;28;20022;-67
2023/10/05 12:51:05;;;;;;;9.05;2.55;;;;;;;;;;4994106;28;20377;-67
2023/10/05 12:53:31;;;;;;;11.50;3.25;;;;;;;;;;4993780;28;20023;-67
2023/10/05 12:55:56;;;;;;;14.87;2.90;;;;;;;;;;4993757;28;20026;-67
2023/10/05 12:58:23;;;;;;;17.98;3.40;;;;;;;;;;4993762;28;20022;-67
2023/10/05 13:00:49;;;;;;;12.20;2.72;;;;;;;;;;4993603;28;20022;-67
2023/10/05 13:03:14;;;;;;;10.67;3.00;;;;;;;;;;4996664;28;20037;-67
2023/10/05 13:05:47;;;;;;;8.33;2.90;;;;;;;;;;4997665;28;20030;-67
2023/10/05 13:08:15;;;;;;;17.13;3.95;;;;;;;;;;4997793;28;20275;-67
2023/10/05 13:10:43;;;;;;;12.13;3.53;;;;;;;;;;4997534;28;20048;-67
2023/10/05 13:13:17;;;;;;;10.80;3.17;;;;;;;;;;4997660;28;20432;-67
2023/10/05 13:15:42;;;;;;;14.10;3.55;;;;;;;;;;4997380;28;20022;-67
2023/10/05 13:18:20;;;;;;;7.55;2.85;;;;;;;;;;4997436;28;20150;-67
2023/10/05 13:20:47;;;;;;;12.70;3.97;;;;;;;;;;4997498;28;20026;-67
2023/10/05 13:23:13;;;;;;;16.70;3.25;;;;;;;;;;4997522;28;20022;-67
2023/10/05 13:25:39;;;;;;;14.27;3.30;;;;;;;;;;4997518;28;20014;-67
2023/10/05 13:28:05;;;;;;;11.07;3.17;;;;;;;;;;4997183;28;20015;-67
2023/10/05 13:30:40;;;;;;;9.65;3.10;;;;;;;;;;4997131;28;20505;-67
2023/10/05 13:33:13;;;;;;;12.88;3.03;;;;;;;;;;4997389;28;20417;-67
2023/10/05 13:35:38;;;;;;;17.05;4.38;;;;;;;;;;4997099;28;20109;-67
2023/10/05 13:38:06;;;;;;;9.43;3.10;;;;;;;;;;4997162;28;20105;-67
2023/10/05 13:40:34;;;;;;;15.55;3.42;;;;;;;;;;4996931;28;20510;-67
2023/10/05 13:42:59;;;;;;;15.63;4.07;;;;;;;;;;4996826;28;20106;-67
2023/10/05 13:45:25;;;;;;;16.80;3.38;;;;;;;;;;4996892;28;20109;-67
2023/10/05 13:47:52;;;;;;;14.90;3.53;;;;;;;;;;4997100;28;20491;-67
2023/10/05 13:50:18;;;;;;;9.98;3.47;;;;;;;;;;4996784;28;20026;-67
2023/10/05 13:52:45;;;;;;;14.10;3.28;;;;;;;;;;4995501;28;20022;-67
2023/10/05 13:55:14;;;;;;;9.50;3.22;;;;;;;;;;4996841;28;20027;-67
2023/10/05 13:57:39;;;;;;;8.57;2.90;;;;;;;;;;4996740;28;20026;-67
2023/10/05 14:00:13;;;;;;;11.35;3.75;;;;;;;;;;4996663;28;20026;-67
2023/10/05 14:02:38;;;;;;;8.95;3.45;;;;;;;;;;4996636;28;20479;-67
2023/10/05 14:05:04;;;;;;;14.48;3.60;;;;;;;;;;4996813;28;20085;-67
2023/10/05 14:07:29;;;;;;;15.63;3.90;;;;;;;;;;4996379;28;20387;-67
2023/10/05 14:09:56;;;;;;;13.30;3.90;;;;;;;;;;4996380;28;20052;-67
2023/10/05 14:12:21;;;;;;;20.15;3.42;;;;;;;;;;4996559;28;20474;-67
2023/10/05 14:14:46;;;;;;;10.53;3.33;;;;;;;;;;4996282;28;20076;-67
2023/10/05 14:17:12;;;;;;;10.57;2.85;;;;;;;;;;4996308;28;20098;-67
2023/10/05 14:19:38;;;;;;;11.70;2.40;;;;;;;;;;4996462;28;20475;-67
2023/10/05 14:22:04;;;;;;;9.60;3.15;;;;;;;;;;4996218;28;20252;-67
2023/10/05 14:24:32;;;;;;;9.10;2.65;;;;;;;;;;4996392;28;20034;-67
2023/10/05 14:26:58;;;;;;;12.25;3.25;;;;;;;;;;4996393;28;20418;-67
2023/10/05 14:29:24;;;;;;;10.38;2.75;;;;;;;;;;4996112;28;20033;-67
2023/10/05 14:31:53;;;;;;;10.70;3.65;;;;;;;;;;4995932;28;20045;-67
2023/10/05 14:34:18;;;;;;;19.23;4.13;;;;;;;;;;4996229;28;20428;-67
2023/10/05 14:36:44;;;;;;;11.57;3.45;;;;;;;;;;4995977;28;20097;-67
2023/10/05 14:39:18;;;;;;;10.38;3.10;;;;;;;;;;4996038;28;20022;-67
2023/10/05 14:41:44;;;;;;;14.25;3.25;;;;;;;;;;4996101;28;20032;-67
2023/10/05 14:44:09;;;;;;;15.70;3.50;;;;;;;;;;4995876;28;20382;-67
2023/10/05 14:46:34;;;;;;;16.48;4.30;;;;;;;;;;4996020;28;20435;-67
2023/10/05 14:49:00;;;;;;;17.73;3.30;;;;;;;;;;4995994;28;20145;-67
2023/10/05 14:51:27;;;;;;;9.40;2.60;;;;;;;;;;4995956;28;20030;-67
2023/10/05 14:53:52;;;;;;;13.20;2.60;;;;;;;;;;4995854;28;20474;-67